Time;durP1;ratioP1;P1;durP2;ratioP2;P2;SDS_P1;SDS_P2;PMS_P1;PMS_P2;Temp;Humidity;BMP_temperature;BMP_pressure;BME280_temperature;BME280_humidity;BME280_pressure;Samples;Min_cycle;Max_cycle;Signal;HPM_P1;HPM_P2
2022/05/25 00:02:00;;;;;;;0.52;0.10;;;18.80;57.50;;;;;;5073601;28;20400;-66
2022/05/25 00:04:26;;;;;;;0.50;0.10;;;18.80;57.50;;;;;;5072246;28;20041;-67
2022/05/25 00:06:52;;;;;;;0.30;0.10;;;18.80;57.60;;;;;;5072337;28;20044;-67
2022/05/25 00:09:20;;;;;;;0.13;0.10;;;18.70;57.50;;;;;;5072246;28;20121;-67
2022/05/25 00:11:47;;;;;;;0.60;0.20;;;18.70;57.50;;;;;;5072263;28;20145;-67
2022/05/25 00:14:13;;;;;;;0.63;0.10;;;18.80;57.60;;;;;;5072033;28;20495;-67
2022/05/25 00:16:39;;;;;;;1.20;0.10;;;18.70;57.60;;;;;;5072138;28;20064;-67
2022/05/25 00:21:53;;;;;;;0.57;0.10;;;18.70;57.60;;;;;;5071943;28;20072;-67
2022/05/25 00:24:20;;;;;;;0.60;0.20;;;18.70;57.60;;;;;;5073519;28;20040;-67
2022/05/25 00:26:45;;;;;;;0.20;0.10;;;18.70;57.70;;;;;;5071996;28;20052;-67
2022/05/25 00:29:11;;;;;;;0.63;0.22;;;18.70;57.60;;;;;;5071828;28;20044;-67
2022/05/25 00:31:37;;;;;;;0.30;0.10;;;18.60;57.60;;;;;;5072957;28;20127;-67
2022/05/25 00:34:07;;;;;;;0.20;0.10;;;18.60;57.60;;;;;;5072889;28;20044;-67
2022/05/25 00:36:33;;;;;;;0.20;0.10;;;18.60;57.60;;;;;;5072043;28;20050;-67
2022/05/25 00:38:58;;;;;;;0.20;0.10;;;18.70;57.70;;;;;;5071095;28;20310;-66
2022/05/25 00:41:28;;;;;;;0.20;0.10;;;18.70;57.70;;;;;;5071627;28;20515;-67
2022/05/25 00:43:55;;;;;;;0.98;0.10;;;18.60;57.70;;;;;;5060053;28;20037;-66
2022/05/25 00:46:22;;;;;;;0.43;0.13;;;18.60;57.70;;;;;;5051851;28;20089;-67
2022/05/25 00:49:12;;;;;;;0.50;0.10;;;18.60;57.70;;;;;;5051801;28;20385;-66
2022/05/25 00:54:21;;;;;;;0.30;0.13;;;18.60;57.80;;;;;;5130222;27;20435;-68
2022/05/25 00:56:50;;;;;;;0.30;0.10;;;18.60;57.80;;;;;;5128939;27;20043;-68
2022/05/25 00:59:21;;;;;;;0.40;0.10;;;18.60;57.80;;;;;;5128927;28;20040;-67
2022/05/25 01:01:47;;;;;;;0.25;0.10;;;18.60;57.80;;;;;;5128906;28;20070;-67
2022/05/25 01:04:16;;;;;;;0.25;0.10;;;18.50;57.70;;;;;;5128891;28;20482;-67
2022/05/25 01:09:46;;;;;;;0.20;0.10;;;18.50;57.80;;;;;;5130323;27;20918;-67
2022/05/25 01:12:40;;;;;;;0.43;0.10;;;18.50;57.80;;;;;;5130497;27;20445;-67
2022/05/25 01:20:49;;;;;;;0.40;0.10;;;18.50;57.80;;;;;;5150942;27;20095;-66
2022/05/25 01:26:40;;;;;;;0.20;0.10;;;18.50;57.80;;;;;;5154438;27;1171517;-66
2022/05/25 01:42:55;;;;;;;0.30;0.20;;;18.40;57.80;;;;;;5130219;27;20427;-67
2022/05/25 01:45:24;;;;;;;0.50;0.15;;;18.40;57.80;;;;;;5128929;28;20047;-66
2022/05/25 01:47:51;;;;;;;0.40;0.10;;;18.40;57.90;;;;;;5128900;28;20047;-67
2022/05/25 01:50:23;;;;;;;1.80;0.20;;;18.40;57.90;;;;;;5128755;27;20456;-67
2022/05/25 01:52:54;;;;;;;0.20;0.10;;;18.40;57.80;;;;;;5129045;28;20134;-67
2022/05/25 01:55:27;;;;;;;0.52;0.13;;;18.40;57.90;;;;;;5129072;28;20501;-67
2022/05/25 01:57:56;;;;;;;0.40;0.13;;;18.40;57.80;;;;;;5128671;28;20086;-66
2022/05/25 02:00:41;;;;;;;0.52;0.20;;;18.40;57.80;;;;;;5129817;27;20051;-67
2022/05/25 02:06:23;;;;;;;0.20;0.10;;;18.30;57.80;;;;;;5128745;28;20051;-67
2022/05/25 02:09:22;;;;;;;2.55;0.20;;;18.30;57.80;;;;;;5128271;28;20035;-67
2022/05/25 02:11:54;;;;;;;1.30;0.40;;;18.30;57.90;;;;;;5128337;28;20131;-66
2022/05/25 02:15:01;;;;;;;1.58;0.30;;;18.40;57.90;;;;;;5129834;27;20035;-69
2022/05/25 02:22:56;;;;;;;0.70;0.10;;;18.30;57.80;;;;;;5130252;27;20135;-67
2022/05/25 02:25:45;;;;;;;0.98;0.20;;;18.30;57.90;;;;;;5128996;28;20093;-67
2022/05/25 02:28:17;;;;;;;0.55;0.20;;;18.30;57.90;;;;;;5130121;27;20045;-67
2022/05/25 02:30:57;;;;;;;0.60;0.30;;;18.30;58.70;;;;;;5129113;28;20031;-67
2022/05/25 02:33:28;;;;;;;0.38;0.20;;;18.30;57.80;;;;;;5129111;28;20514;-66
2022/05/25 02:35:55;;;;;;;0.70;0.30;;;18.30;57.80;;;;;;5128793;28;20049;-66
2022/05/25 02:38:21;;;;;;;1.30;0.15;;;18.20;57.80;;;;;;5128730;28;20044;-66
2022/05/25 02:40:47;;;;;;;0.50;0.20;;;18.20;57.80;;;;;;5128661;28;20096;-67
2022/05/25 02:43:12;;;;;;;0.52;0.20;;;18.30;57.90;;;;;;5128773;27;20035;-68
2022/05/25 02:45:39;;;;;;;0.60;0.20;;;18.20;57.80;;;;;;5111782;28;20028;-67
2022/05/25 02:48:08;;;;;;;0.60;0.20;;;18.20;57.80;;;;;;5128490;28;20084;-67
2022/05/25 02:50:34;;;;;;;0.90;0.20;;;18.20;57.80;;;;;;5128790;28;20486;-66
2022/05/25 02:53:00;;;;;;;0.30;0.20;;;18.20;57.80;;;;;;5129934;27;20039;-67
2022/05/25 02:55:26;;;;;;;0.40;0.10;;;18.20;57.90;;;;;;5128656;28;20031;-67
2022/05/25 02:57:51;;;;;;;0.47;0.20;;;18.20;57.90;;;;;;5129713;28;20391;-66
2022/05/25 03:00:17;;;;;;;0.30;0.20;;;18.20;57.90;;;;;;5128494;28;20035;-67
2022/05/25 03:02:43;;;;;;;0.57;0.20;;;18.10;57.80;;;;;;5128254;28;20402;-66
2022/05/25 03:05:10;;;;;;;0.98;0.20;;;18.10;57.80;;;;;;5128141;28;20046;-66
2022/05/25 03:07:36;;;;;;;0.40;0.20;;;18.10;57.80;;;;;;5128413;28;20080;-66
2022/05/25 03:10:04;;;;;;;0.40;0.20;;;18.10;57.80;;;;;;5128375;28;20046;-67
2022/05/25 03:12:30;;;;;;;0.47;0.20;;;18.10;57.90;;;;;;5129504;27;20399;-67
2022/05/25 03:14:55;;;;;;;0.80;0.30;;;18.10;57.80;;;;;;5129332;28;20042;-67
2022/05/25 03:17:21;;;;;;;0.68;0.20;;;18.10;57.80;;;;;;5128285;28;20122;-67
2022/05/25 03:19:53;;;;;;;0.95;0.10;;;18.10;57.80;;;;;;5128039;28;20043;-66
2022/05/25 03:22:19;;;;;;;0.50;0.28;;;18.10;57.90;;;;;;5128859;27;20051;-67
2022/05/25 03:24:48;;;;;;;1.23;0.30;;;18.10;57.80;;;;;;5127996;28;20104;-67
2022/05/25 03:27:14;;;;;;;0.68;0.30;;;18.10;57.90;;;;;;5127792;28;20027;-66
2022/05/25 03:29:39;;;;;;;0.28;0.20;;;18.10;57.80;;;;;;5127740;28;20039;-65
2022/05/25 03:32:06;;;;;;;1.08;0.35;;;18.10;57.80;;;;;;5126497;28;20054;-66
2022/05/25 03:34:32;;;;;;;1.45;0.30;;;18.10;57.80;;;;;;5113664;28;20613;-66
2022/05/25 03:37:01;;;;;;;0.47;0.20;;;18.00;57.80;;;;;;5114183;28;20058;-65
2022/05/25 03:39:28;;;;;;;1.58;0.40;;;18.00;57.80;;;;;;5113942;28;20032;-65
2022/05/25 03:41:56;;;;;;;0.60;0.30;;;18.00;57.80;;;;;;5115335;28;20395;-66
2022/05/25 03:44:23;;;;;;;0.63;0.30;;;18.00;57.80;;;;;;5113995;28;20036;-66
2022/05/25 03:46:50;;;;;;;0.45;0.28;;;18.00;57.80;;;;;;5114968;28;20028;-66
2022/05/25 03:49:16;;;;;;;0.80;0.20;;;18.00;57.80;;;;;;5114927;28;20043;-66
2022/05/25 03:51:42;;;;;;;0.50;0.22;;;18.00;57.80;;;;;;5114941;28;20056;-66
2022/05/25 03:54:08;;;;;;;0.65;0.20;;;18.00;57.80;;;;;;5113586;28;20093;-65
2022/05/25 03:56:34;;;;;;;1.52;0.30;;;18.00;57.90;;;;;;5113518;28;20598;-66
2022/05/25 03:59:00;;;;;;;0.40;0.20;;;18.00;57.90;;;;;;5114964;28;20127;-66
2022/05/25 04:01:26;;;;;;;1.52;0.30;;;18.00;57.80;;;;;;5113525;28;20040;-65
2022/05/25 04:03:51;;;;;;;1.27;0.30;;;18.00;57.90;;;;;;5113452;28;20035;-66
2022/05/25 04:06:17;;;;;;;0.50;0.20;;;18.00;57.80;;;;;;5114831;28;20035;-65
2022/05/25 04:08:42;;;;;;;0.75;0.30;;;18.00;57.90;;;;;;5114663;28;20111;-65
2022/05/25 04:11:08;;;;;;;0.82;0.25;;;17.90;57.80;;;;;;5113298;28;20089;-66
2022/05/25 04:13:34;;;;;;;1.17;0.20;;;17.90;57.80;;;;;;5113156;28;20048;-66
2022/05/25 04:16:00;;;;;;;1.05;0.30;;;17.90;57.80;;;;;;5113175;28;20051;-68
2022/05/25 04:18:25;;;;;;;0.95;0.30;;;17.90;57.80;;;;;;5113400;28;20044;-65
2022/05/25 04:20:51;;;;;;;1.73;0.30;;;17.90;57.80;;;;;;5112772;28;20085;-66
2022/05/25 04:23:17;;;;;;;0.43;0.20;;;17.90;57.80;;;;;;5113096;28;20058;-66
2022/05/25 04:25:42;;;;;;;1.30;0.20;;;17.90;57.80;;;;;;5113021;28;20040;-67
2022/05/25 04:28:08;;;;;;;0.60;0.30;;;18.00;57.80;;;;;;5113157;28;20216;-66
2022/05/25 04:30:33;;;;;;;0.60;0.30;;;17.90;57.80;;;;;;5112921;28;20043;-66
2022/05/25 04:33:03;;;;;;;1.38;0.50;;;17.90;57.80;;;;;;5112814;28;20074;-66
2022/05/25 04:35:29;;;;;;;0.80;0.30;;;17.90;57.80;;;;;;5114013;28;20027;-66
2022/05/25 04:37:57;;;;;;;0.50;0.30;;;17.90;57.80;;;;;;5114195;28;20451;-66
2022/05/25 04:43:08;;;;;;;0.60;0.30;;;17.90;57.70;;;;;;5130199;27;20763;-66
2022/05/25 04:45:36;;;;;;;0.77;0.40;;;17.90;57.70;;;;;;5129284;28;20061;-66
2022/05/25 04:48:03;;;;;;;0.95;0.38;;;17.90;57.70;;;;;;5128867;28;20475;-65
2022/05/25 04:50:33;;;;;;;0.82;0.60;;;17.90;57.70;;;;;;5129054;28;20080;-66
2022/05/25 04:52:59;;;;;;;1.05;0.30;;;17.90;57.70;;;;;;5128881;28;20073;-67
2022/05/25 04:58:22;;;;;;;0.50;0.20;;;17.90;57.70;;;;;;5128854;28;20070;-66
2022/05/25 05:00:47;;;;;;;1.30;0.30;;;17.90;57.70;;;;;;5129880;27;20050;-66
2022/05/25 05:03:14;;;;;;;1.52;0.30;;;17.90;57.70;;;;;;5129272;27;20550;-67
2022/05/25 05:05:39;;;;;;;0.43;0.20;;;17.90;57.60;;;;;;5129427;28;20047;-67
2022/05/25 05:08:07;;;;;;;1.58;0.30;;;18.00;57.50;;;;;;5130079;28;20043;-67
2022/05/25 05:10:32;;;;;;;0.60;0.20;;;18.00;57.30;;;;;;5128837;28;20432;-67
2022/05/25 05:12:58;;;;;;;1.33;0.22;;;18.00;57.20;;;;;;5128400;28;20035;-66
2022/05/25 05:15:23;;;;;;;0.77;0.47;;;18.00;57.10;;;;;;5125567;28;20039;-66
2022/05/25 05:17:49;;;;;;;1.33;0.20;;;18.10;57.00;;;;;;5143855;27;20818;-66
2022/05/25 05:20:15;;;;;;;1.50;0.80;;;18.10;57.00;;;;;;5126358;28;20043;-66
2022/05/25 05:22:40;;;;;;;1.67;0.30;;;18.10;57.00;;;;;;5108601;28;20038;-68
2022/05/25 05:25:07;;;;;;;0.80;0.30;;;18.10;57.60;;;;;;5127713;28;20047;-67
2022/05/25 05:27:34;;;;;;;2.50;0.30;;;18.20;57.40;;;;;;5126933;28;20031;-67
2022/05/25 05:30:03;;;;;;;2.75;0.50;;;18.20;57.20;;;;;;5127128;28;20187;-67
2022/05/25 05:32:30;;;;;;;3.05;0.60;;;18.20;57.50;;;;;;5127530;27;20088;-68
2022/05/25 05:34:57;;;;;;;3.78;1.00;;;18.20;57.40;;;;;;5127229;28;20051;-68
2022/05/25 05:37:29;;;;;;;2.85;0.80;;;18.30;57.60;;;;;;5127756;28;20386;-66
2022/05/25 05:39:56;;;;;;;3.25;1.20;;;18.30;58.80;;;;;;5126550;28;20483;-67
2022/05/25 05:42:24;;;;;;;1.60;1.08;;;18.30;58.30;;;;;;5122911;28;20047;-67
2022/05/25 05:44:59;;;;;;;1.50;0.60;;;18.30;58.10;;;;;;5123649;28;20525;-68
2022/05/25 05:47:31;;;;;;;3.63;0.75;;;18.40;57.90;;;;;;5122902;28;20039;-62
2022/05/25 05:49:57;;;;;;;4.75;0.85;;;18.40;57.80;;;;;;5119227;28;20100;-64
2022/05/25 05:52:24;;;;;;;2.25;1.00;;;18.40;57.80;;;;;;5119409;28;20048;-71
2022/05/25 05:54:49;;;;;;;2.45;1.33;;;18.40;58.00;;;;;;5108087;28;20092;-73
2022/05/25 05:57:15;;;;;;;4.60;2.80;;;18.40;58.70;;;;;;5110330;28;20055;-66
2022/05/25 05:59:41;;;;;;;5.72;2.50;;;18.40;58.50;;;;;;5108186;28;20523;-70
2022/05/25 06:02:09;;;;;;;5.13;2.00;;;18.40;58.50;;;;;;5106771;28;20028;-68
2022/05/25 06:04:35;;;;;;;4.20;1.60;;;18.40;58.40;;;;;;5105196;28;20024;-68
2022/05/25 06:07:03;;;;;;;4.25;2.13;;;18.50;58.40;;;;;;5101893;28;20444;-65
2022/05/25 06:09:29;;;;;;;4.50;2.17;;;18.50;58.20;;;;;;5104404;28;20043;-68
2022/05/25 06:11:55;;;;;;;4.45;2.28;;;18.40;58.20;;;;;;5103308;28;20039;-73
2022/05/25 06:14:20;;;;;;;4.20;2.25;;;18.40;58.30;;;;;;5104206;28;20142;-72
2022/05/25 06:19:33;;;;;;;4.10;2.20;;;18.50;58.40;;;;;;5070043;27;20674;-71
2022/05/25 06:22:07;;;;;;;2.50;1.88;;;18.40;58.50;;;;;;5085868;27;20070;-70
2022/05/25 06:24:37;;;;;;;4.53;2.33;;;18.50;58.60;;;;;;5085552;27;20750;-70
2022/05/25 06:27:04;;;;;;;3.63;1.70;;;18.50;58.60;;;;;;5086011;27;20043;-70
2022/05/25 06:29:29;;;;;;;3.58;1.80;;;18.50;59.20;;;;;;5089967;27;20102;-70
2022/05/25 06:31:55;;;;;;;3.47;1.40;;;18.50;58.70;;;;;;5090225;28;20459;-67
2022/05/25 06:34:21;;;;;;;4.70;1.20;;;18.50;58.60;;;;;;5087719;27;20170;-66
2022/05/25 06:36:48;;;;;;;4.80;1.85;;;18.50;58.90;;;;;;5105526;27;20123;-66
2022/05/25 06:39:14;;;;;;;4.65;1.20;;;18.60;60.00;;;;;;5090708;27;20048;-65
2022/05/25 06:41:40;;;;;;;4.97;1.60;;;18.60;59.50;;;;;;5087774;28;20071;-66
2022/05/25 06:44:06;;;;;;;3.72;1.23;;;18.70;59.80;;;;;;5108184;27;20127;-65
2022/05/25 06:46:31;;;;;;;2.78;0.82;;;18.70;60.00;;;;;;5094510;28;20040;-65
2022/05/25 06:48:58;;;;;;;3.20;0.88;;;18.70;60.20;;;;;;5080639;22;20053;-92
2022/05/25 06:51:27;;;;;;;2.38;0.77;;;18.80;60.30;;;;;;5037899;28;20045;-88
2022/05/25 06:53:54;;;;;;;3.42;0.90;;;18.70;60.30;;;;;;5040067;28;20142;-86
2022/05/25 06:56:22;;;;;;;3.17;1.20;;;18.80;60.20;;;;;;5029907;28;20045;-84
2022/05/25 06:58:48;;;;;;;5.15;1.13;;;18.80;60.20;;;;;;5034572;28;20445;-86
2022/05/25 07:01:13;;;;;;;4.25;1.65;;;18.90;60.10;;;;;;5033443;28;20219;-87
2022/05/25 07:03:39;;;;;;;2.95;0.88;;;18.90;60.10;;;;;;5022203;28;20061;-86
2022/05/25 07:06:06;;;;;;;2.72;0.77;;;18.90;59.90;;;;;;5029040;28;20033;-87
2022/05/25 07:08:32;;;;;;;4.97;1.80;;;19.00;60.20;;;;;;5036420;28;20041;-86
2022/05/25 07:11:00;;;;;;;4.00;1.60;;;19.00;60.30;;;;;;5027092;28;20086;-86
2022/05/25 07:13:26;;;;;;;5.05;1.20;;;19.00;60.40;;;;;;5027585;28;20055;-88
2022/05/25 07:15:58;;;;;;;4.07;0.75;;;19.00;60.30;;;;;;5020657;28;20095;-86
2022/05/25 07:18:25;;;;;;;3.03;0.80;;;19.00;60.60;;;;;;5035041;28;20037;-85
2022/05/25 07:20:50;;;;;;;4.00;0.57;;;19.00;60.50;;;;;;5027552;28;20053;-88
2022/05/25 07:23:16;;;;;;;2.15;0.60;;;19.20;60.60;;;;;;5033997;28;20028;-86
2022/05/25 07:25:42;;;;;;;3.75;0.50;;;19.20;60.60;;;;;;5046331;28;20033;-89
2022/05/25 07:28:07;;;;;;;4.55;0.70;;;19.30;60.60;;;;;;5036373;28;20462;-90
2022/05/25 07:30:33;;;;;;;1.55;0.68;;;19.30;60.50;;;;;;5033779;28;20068;-85
2022/05/25 07:32:59;;;;;;;4.20;1.05;;;19.30;60.40;;;;;;5028065;28;20048;-91
2022/05/25 07:35:26;;;;;;;7.28;0.95;;;19.30;60.10;;;;;;5027151;28;21364;-84
2022/05/25 07:37:54;;;;;;;1.05;0.50;;;19.30;60.10;;;;;;5036367;28;20041;-86
2022/05/25 07:40:27;;;;;;;3.92;1.10;;;19.30;60.30;;;;;;5034160;28;20045;-85
2022/05/25 07:42:57;;;;;;;3.20;0.50;;;19.20;60.40;;;;;;5028831;28;20070;-85
2022/05/25 07:45:23;;;;;;;3.70;1.00;;;19.20;60.30;;;;;;5034085;28;20037;-84
2022/05/25 07:47:51;;;;;;;5.20;0.85;;;19.30;60.20;;;;;;5050111;28;20057;-88
2022/05/25 07:50:17;;;;;;;4.45;0.77;;;19.30;60.30;;;;;;5033280;28;20049;-90
2022/05/25 07:52:43;;;;;;;4.63;0.60;;;19.40;60.40;;;;;;5030419;28;20076;-84
2022/05/25 07:55:11;;;;;;;2.58;0.65;;;19.30;60.00;;;;;;5026658;28;20081;-85
2022/05/25 07:57:37;;;;;;;3.83;0.50;;;19.50;60.60;;;;;;5027214;28;20032;-86
2022/05/25 08:00:05;;;;;;;5.95;0.88;;;19.60;59.80;;;;;;5029749;28;20049;-85
2022/05/25 08:05:59;;;;;;;6.15;1.00;;;19.60;59.80;;;;;;5033679;28;20120;-85
2022/05/25 08:08:18;;;;;;;6.38;0.90;;;19.60;59.70;;;;;;5037464;28;20124;-91
2022/05/25 08:10:50;;;;;;;2.05;0.70;;;19.70;59.70;;;;;;5036163;28;20688;-88
2022/05/25 08:13:17;;;;;;;5.25;0.60;;;19.70;59.80;;;;;;5038780;28;20122;-92
2022/05/25 08:15:44;;;;;;;3.15;0.65;;;19.80;59.70;;;;;;5029493;28;20037;-93
2022/05/25 08:18:11;;;;;;;1.92;0.77;;;19.80;59.60;;;;;;5029993;28;20739;-89
2022/05/25 08:20:38;;;;;;;2.75;0.60;;;19.80;59.60;;;;;;5026951;28;20048;-87
2022/05/25 08:23:07;;;;;;;3.17;0.60;;;19.80;59.40;;;;;;5030640;28;20042;-96
2022/05/25 08:25:34;;;;;;;2.70;0.50;;;19.80;59.20;;;;;;5026923;28;20742;-88
2022/05/25 08:28:00;;;;;;;4.65;0.70;;;19.90;59.20;;;;;;5031167;28;20053;-88
2022/05/25 08:30:27;;;;;;;4.47;0.52;;;19.90;59.00;;;;;;5027155;28;20064;-87
2022/05/25 08:32:53;;;;;;;5.60;0.65;;;20.00;58.80;;;;;;5024503;28;20094;-88
2022/05/25 08:35:20;;;;;;;2.55;0.60;;;20.00;58.60;;;;;;5040140;28;20045;-93
2022/05/25 08:37:46;;;;;;;3.95;0.30;;;20.10;58.30;;;;;;5020205;28;20041;-96
2022/05/25 08:40:21;;;;;;;5.95;0.70;;;20.20;57.90;;;;;;5035881;28;20163;-91
2022/05/25 08:42:57;;;;;;;3.83;0.40;;;20.20;57.50;;;;;;5037907;28;20524;-86
2022/05/25 08:45:31;;;;;;;2.75;0.45;;;20.40;56.90;;;;;;5037027;28;20037;-92
2022/05/25 08:47:58;;;;;;;3.25;0.68;;;20.60;56.50;;;;;;5041674;28;20044;-93
2022/05/25 08:50:24;;;;;;;1.00;0.20;;;20.60;56.10;;;;;;5034622;28;20919;-87
2022/05/25 08:52:55;;;;;;;3.67;0.43;;;20.70;55.70;;;;;;5032484;28;20087;-86
2022/05/25 08:55:56;;;;;;;2.65;0.20;;;20.80;55.20;;;;;;5025040;28;20041;-89
2022/05/25 08:58:27;;;;;;;0.65;0.20;;;21.00;54.70;;;;;;5032078;28;20065;-85
2022/05/25 09:00:54;;;;;;;2.15;0.20;;;21.10;53.90;;;;;;5029868;28;20052;-83
2022/05/25 09:06:15;;;;;;;1.77;0.20;;;21.20;53.50;;;;;;5086205;27;20501;-69
2022/05/25 09:11:45;;;;;;;2.10;0.20;;;21.30;53.20;;;;;;5093567;27;20526;-67
2022/05/25 09:14:19;;;;;;;2.15;0.30;;;21.30;53.10;;;;;;5071275;28;20121;-68
2022/05/25 09:16:48;;;;;;;3.50;0.20;;;21.30;53.20;;;;;;5084006;28;20049;-69
2022/05/25 09:19:19;;;;;;;3.63;0.35;;;21.30;53.30;;;;;;5072114;28;20044;-71
2022/05/25 09:21:58;;;;;;;1.67;0.10;;;21.30;53.30;;;;;;5069054;28;20044;-70
2022/05/25 09:24:26;;;;;;;1.50;0.20;;;21.30;53.30;;;;;;5069530;28;20051;-70
2022/05/25 09:26:53;;;;;;;3.08;0.30;;;21.20;53.30;;;;;;5067427;28;20560;-70
2022/05/25 09:29:21;;;;;;;3.33;0.25;;;21.30;53.50;;;;;;5074540;28;20052;-69
2022/05/25 09:32:12;;;;;;;1.27;0.30;;;21.30;53.40;;;;;;5076620;28;20594;-68
2022/05/25 09:40:10;;;;;;;3.15;0.20;;;21.30;53.30;;;;;;5108243;27;20431;-68
2022/05/25 09:42:37;;;;;;;2.97;0.65;;;21.50;53.00;;;;;;5091085;28;20166;-72
2022/05/25 09:45:09;;;;;;;2.33;0.20;;;21.50;52.90;;;;;;5093455;28;20044;-70
2022/05/25 09:47:41;;;;;;;4.45;0.22;;;21.50;52.90;;;;;;5095095;28;20446;-72
2022/05/25 09:50:17;;;;;;;5.93;0.28;;;21.50;52.90;;;;;;5092855;28;20044;-74
2022/05/25 09:52:48;;;;;;;4.05;0.20;;;21.60;52.50;;;;;;5100565;28;20065;-73
2022/05/25 09:55:21;;;;;;;1.50;0.20;;;21.60;52.40;;;;;;5092619;28;20468;-72
2022/05/25 09:57:58;;;;;;;2.60;0.20;;;21.60;52.30;;;;;;5130477;27;20051;-70
2022/05/25 10:00:51;;;;;;;2.70;0.20;;;21.60;52.50;;;;;;5088507;28;21597;-71
2022/05/25 10:12:16;;;;;;;2.05;0.15;;;21.70;52.70;;;;;;5058687;27;20416;-72
2022/05/25 10:15:02;;;;;;;3.13;0.20;;;21.70;52.90;;;;;;5041582;28;20056;-72
2022/05/25 10:17:32;;;;;;;1.98;0.25;;;21.70;52.80;;;;;;5045333;28;20057;-72
2022/05/25 10:20:04;;;;;;;2.40;0.30;;;21.70;52.80;;;;;;5044807;28;20047;-71
2022/05/25 10:22:41;;;;;;;1.88;0.20;;;21.80;53.10;;;;;;5047002;28;20055;-71
2022/05/25 10:27:53;;;;;;;2.90;0.40;;;21.70;53.20;;;;;;5048329;27;20454;-70
2022/05/25 10:38:46;;;;;;;1.95;0.28;;;21.70;53.20;;;;;;5033121;28;20599;-74
2022/05/25 10:41:45;;;;;;;4.78;0.30;;;21.80;53.30;;;;;;5037089;28;20120;-71
2022/05/25 10:44:21;;;;;;;2.47;0.30;;;21.80;53.20;;;;;;5037799;28;20054;-72
2022/05/25 10:46:57;;;;;;;4.35;0.55;;;21.80;52.90;;;;;;5040506;28;20552;-72
2022/05/25 10:52:08;;;;;;;3.25;0.40;;;21.80;52.50;;;;;;5146173;27;1153789;-73
2022/05/25 10:57:29;;;;;;;1.52;0.30;;;21.80;52.10;;;;;;5123025;27;20382;-73
2022/05/25 11:05:40;;;;;;;2.58;0.40;;;21.80;51.70;;;;;;5102531;27;20400;-72
2022/05/25 11:27:43;;;;;;;4.22;0.60;;;21.80;51.30;;;;;;5108372;27;20808;-71
2022/05/25 11:36:01;;;;;;;2.38;0.22;;;21.80;50.80;;;;;;5123159;27;20518;-72
2022/05/25 11:38:52;;;;;;;3.08;0.77;;;21.80;50.70;;;;;;5122690;28;20039;-72
2022/05/25 11:46:45;;;;;;;3.15;1.02;;;21.80;50.40;;;;;;5104193;27;20388;-73
2022/05/25 11:49:40;;;;;;;3.25;0.50;;;21.70;50.40;;;;;;5098055;28;20040;-72
2022/05/25 11:52:24;;;;;;;2.75;0.30;;;21.70;50.30;;;;;;5118376;27;20495;-76
2022/05/25 11:58:12;;;;;;;1.67;0.30;;;21.70;50.60;;;;;;5131616;27;1168818;-71
2022/05/25 12:09:27;;;;;;;2.55;0.50;;;21.60;50.60;;;;;;5111497;27;20409;-76
2022/05/25 12:15:15;;;;;;;1.63;0.45;;;21.60;49.80;;;;;;5072967;27;20402;-74
2022/05/25 12:18:09;;;;;;;1.88;0.40;;;21.50;49.50;;;;;;5061159;28;20051;-75
2022/05/25 12:23:26;;;;;;;3.25;0.57;;;21.50;49.40;;;;;;5109013;27;20374;-75
2022/05/25 12:25:56;;;;;;;2.33;0.40;;;21.50;49.50;;;;;;5100111;28;20044;-76
2022/05/25 12:28:24;;;;;;;;;;;21.50;49.40;;;;;;5124228;27;20056;-75
2022/05/25 12:30:54;;;;;;;0.98;0.30;;;21.50;49.20;;;;;;5111263;28;19927;-75
2022/05/25 12:33:24;;;;;;;1.02;0.30;;;21.50;49.50;;;;;;5101805;28;20034;-74
2022/05/25 12:35:50;;;;;;;2.22;0.47;;;21.60;49.40;;;;;;5102060;28;20028;-74
2022/05/25 12:38:18;;;;;;;1.27;0.35;;;21.60;49.40;;;;;;5116347;28;20118;-76
2022/05/25 12:40:49;;;;;;;1.20;0.40;;;21.60;49.30;;;;;;5098159;28;20431;-74
2022/05/25 12:43:34;;;;;;;;;;;21.60;49.20;;;;;;5100175;28;20123;-73
2022/05/25 12:48:56;;;;;;;1.15;0.60;;;21.70;49.40;;;;;;5125115;28;20047;-74
2022/05/25 12:57:00;;;;;;;0.80;0.20;;;21.70;49.20;;;;;;5131871;27;1167293;-74
2022/05/25 13:10:44;;;;;;;2.92;0.38;;;21.70;49.10;;;;;;5152739;27;1160398;-74
2022/05/25 13:19:45;;;;;;;1.35;0.20;;;21.70;48.30;;;;;;5086177;28;20385;-72
2022/05/25 13:25:17;;;;;;;2.93;0.20;;;21.70;48.30;;;;;;5100906;27;1175345;-74
2022/05/25 13:28:13;;;;;;;1.08;0.20;;;21.80;48.60;;;;;;5107663;27;20082;-71
2022/05/25 13:36:16;;;;;;;2.45;0.40;;;21.80;48.50;;;;;;5138852;27;20185;-72
2022/05/25 13:41:26;;;;;;;2.67;0.20;;;21.80;48.00;;;;;;5104566;27;20952;-73
2022/05/25 13:55:22;;;;;;;3.07;0.20;;;21.60;48.20;;;;;;5146719;27;1165701;-73
2022/05/25 14:00:38;;;;;;;0.87;0.20;;;21.50;48.20;;;;;;5148200;27;1165306;-72
2022/05/25 14:03:26;;;;;;;1.50;0.10;;;21.50;48.20;;;;;;5147554;27;20268;-73
2022/05/25 14:05:55;;;;;;;1.17;0.10;;;21.50;48.20;;;;;;5129412;27;20035;-72
2022/05/25 14:14:29;;;;;;;1.33;0.10;;;21.40;48.30;;;;;;5085927;27;20389;-72
2022/05/25 14:16:58;;;;;;;1.98;0.10;;;21.40;48.30;;;;;;5073882;28;20438;-72
2022/05/25 14:19:28;;;;;;;0.37;0.10;;;21.40;48.30;;;;;;5070060;28;20076;-72
2022/05/25 14:22:13;;;;;;;0.50;0.10;;;21.30;48.40;;;;;;5065686;28;20278;-74
2022/05/25 14:24:43;;;;;;;0.77;0.10;;;21.30;48.30;;;;;;5065506;28;20079;-72
2022/05/25 14:30:29;;;;;;;0.47;0.38;;;21.30;48.50;;;;;;5150703;27;1183534;-72
2022/05/25 14:33:17;;;;;;;1.38;0.10;;;21.30;48.50;;;;;;5151266;27;20133;-72
2022/05/25 14:35:52;;;;;;;1.00;0.10;;;21.30;48.40;;;;;;5151758;27;20046;-72
2022/05/25 14:38:19;;;;;;;1.50;0.20;;;21.20;48.40;;;;;;5151603;27;20764;-72
2022/05/25 14:40:48;;;;;;;1.73;0.10;;;21.30;48.50;;;;;;5151639;27;20046;-71
2022/05/25 14:43:32;;;;;;;0.85;0.10;;;21.30;48.50;;;;;;5152153;27;20034;-72
2022/05/25 14:49:00;;;;;;;1.75;0.10;;;21.20;48.50;;;;;;5128622;27;20905;-72
2022/05/25 14:51:33;;;;;;;0.45;0.10;;;21.20;48.60;;;;;;5127915;28;20083;-66
2022/05/25 14:54:12;;;;;;;1.63;0.13;;;21.20;48.60;;;;;;5127328;27;20548;-72
2022/05/25 14:56:40;;;;;;;1.05;0.30;;;21.20;48.60;;;;;;5127508;28;20046;-71
2022/05/25 14:59:07;;;;;;;0.35;0.10;;;21.20;48.70;;;;;;5127436;27;20092;-73
2022/05/25 15:01:35;;;;;;;1.70;0.10;;;21.20;48.80;;;;;;5127813;28;20039;-73
2022/05/25 15:04:09;;;;;;;1.00;0.10;;;21.20;48.80;;;;;;5128124;28;20122;-73
2022/05/25 15:09:36;;;;;;;0.90;0.10;;;21.20;48.80;;;;;;5087996;27;20382;-73
2022/05/25 15:12:23;;;;;;;0.80;0.10;;;21.10;48.80;;;;;;5086899;28;20047;-73
2022/05/25 15:20:47;;;;;;;0.43;0.10;;;21.10;48.40;;;;;;5129051;27;20395;-74
2022/05/25 15:23:26;;;;;;;0.40;0.10;;;21.10;48.60;;;;;;5127902;28;20122;-74
2022/05/25 15:25:53;;;;;;;0.90;0.10;;;21.10;48.70;;;;;;5127564;28;20095;-72
2022/05/25 15:31:04;;;;;;;1.35;0.15;;;21.00;48.60;;;;;;5149764;27;20118;-75
2022/05/25 15:33:33;;;;;;;0.52;0.10;;;21.10;48.70;;;;;;5127297;28;20089;-74
2022/05/25 15:38:40;;;;;;;1.50;0.10;;;21.00;48.70;;;;;;5152894;27;1170401;-73
2022/05/25 15:41:08;;;;;;;1.77;0.10;;;21.00;48.90;;;;;;5151874;27;20438;-72
2022/05/25 15:43:34;;;;;;;0.50;0.10;;;21.00;48.90;;;;;;5151981;27;20045;-72
2022/05/25 15:46:09;;;;;;;0.45;0.10;;;20.90;48.80;;;;;;5151862;27;20069;-72
2022/05/25 15:48:40;;;;;;;0.68;0.10;;;20.90;49.10;;;;;;5151866;27;20094;-72
2022/05/25 15:51:12;;;;;;;1.30;0.10;;;20.90;49.20;;;;;;5151649;27;20050;-72
2022/05/25 15:53:38;;;;;;;0.50;0.10;;;20.90;49.40;;;;;;5151497;27;20062;-72
2022/05/25 15:56:05;;;;;;;0.88;0.10;;;20.90;49.60;;;;;;5151011;27;20517;-72
2022/05/25 15:58:30;;;;;;;0.65;0.17;;;20.80;49.60;;;;;;5169496;27;20129;-73
2022/05/25 16:00:57;;;;;;;0.52;0.10;;;20.80;49.70;;;;;;5151530;27;20168;-73
2022/05/25 16:03:30;;;;;;;3.67;0.10;;;20.80;49.90;;;;;;5151816;27;20537;-72
2022/05/25 16:05:57;;;;;;;0.77;0.10;;;20.70;50.00;;;;;;5151430;27;20113;-73
2022/05/25 16:11:18;;;;;;;0.63;0.10;;;20.70;50.30;;;;;;5167644;27;20401;-73
2022/05/25 16:13:44;;;;;;;0.95;0.20;;;20.70;50.50;;;;;;5130573;27;20122;-74
2022/05/25 16:16:11;;;;;;;0.73;0.10;;;20.60;50.60;;;;;;5130201;27;20544;-74
2022/05/25 16:18:38;;;;;;;1.50;0.50;;;20.60;50.70;;;;;;5148175;27;20481;-74
2022/05/25 16:21:04;;;;;;;0.52;0.10;;;20.60;50.80;;;;;;5130892;27;20426;-74
2022/05/25 16:23:32;;;;;;;0.52;0.00;;;20.50;50.80;;;;;;5131118;27;20168;-75
2022/05/25 16:25:58;;;;;;;0.50;0.10;;;20.60;51.00;;;;;;5130142;27;20047;-70
2022/05/25 16:28:23;;;;;;;1.20;0.20;;;20.60;51.60;;;;;;5131079;27;20053;-73
2022/05/25 16:30:50;;;;;;;2.25;0.10;;;20.60;52.30;;;;;;5130875;27;20367;-69
2022/05/25 16:33:16;;;;;;;2.08;0.35;;;20.60;52.70;;;;;;5130201;27;20058;-71
2022/05/25 16:35:42;;;;;;;1.38;0.10;;;20.60;53.00;;;;;;5129926;27;20043;-71
2022/05/25 16:38:08;;;;;;;1.88;0.10;;;20.60;53.00;;;;;;5184325;27;20060;-71
2022/05/25 16:40:35;;;;;;;0.85;0.17;;;20.60;53.00;;;;;;5171503;27;20070;-71
2022/05/25 16:43:00;;;;;;;1.15;0.10;;;20.70;53.10;;;;;;5163050;27;20099;-71